createdAt,value
2023-05-10T00:00:40.412Z,9.98
2023-05-10T00:03:10.353Z,10.08
2023-05-10T00:05:38.867Z,10.04
2023-05-10T00:08:07.451Z,10.10
2023-05-10T00:10:35.891Z,10.09
2023-05-10T00:13:04.447Z,9.95
2023-05-10T00:15:32.934Z,10.03
2023-05-10T00:18:01.462Z,10.01
2023-05-10T00:20:31.368Z,9.98
2023-05-10T00:22:59.818Z,10.00
2023-05-10T00:25:28.279Z,9.92
2023-05-10T00:27:58.323Z,9.87
2023-05-10T00:30:27.128Z,9.91
2023-05-10T00:32:55.677Z,9.91
2023-05-10T00:35:24.241Z,9.95
2023-05-10T00:37:54.407Z,9.85
2023-05-10T00:40:22.969Z,9.81
2023-05-10T00:42:51.859Z,9.84
2023-05-10T00:45:20.606Z,9.84
2023-05-10T00:47:49.262Z,9.88
2023-05-10T00:50:18.258Z,9.95
2023-05-10T00:52:46.937Z,9.89
2023-05-10T00:55:16.921Z,9.83
2023-05-10T00:57:45.709Z,9.85
2023-05-10T01:00:19.002Z,9.71
2023-05-10T01:02:48.305Z,9.63
2023-05-10T01:05:16.932Z,9.76
2023-05-10T01:07:45.477Z,9.80
2023-05-10T01:10:14.214Z,9.81
2023-05-10T01:12:47.885Z,9.78
2023-05-10T01:15:18.362Z,9.84
2023-05-10T01:17:49.032Z,9.78
2023-05-10T01:20:18.435Z,9.89
2023-05-10T01:23:37.116Z,9.48
2023-05-10T01:26:42.003Z,9.64
2023-05-10T01:30:21.745Z,9.80
2023-05-10T01:32:55.784Z,9.93
2023-05-10T01:35:34.169Z,9.50
2023-05-10T01:38:10.626Z,9.36
2023-05-10T01:40:50.878Z,9.33
2023-05-10T01:43:25.488Z,9.51
2023-05-10T01:46:05.677Z,9.24
2023-05-10T01:48:36.106Z,9.49
2023-05-10T01:51:05.553Z,9.43
2023-05-10T01:53:36.553Z,9.75
2023-05-10T01:56:06.932Z,9.52
2023-05-10T01:58:38.766Z,9.83
2023-05-10T02:01:09.613Z,9.88
2023-05-10T02:03:41.317Z,9.69
2023-05-10T02:06:11.666Z,9.67
2023-05-10T02:08:42.543Z,9.40
2023-05-10T02:11:13.683Z,9.55
2023-05-10T02:13:44.708Z,9.53
2023-05-10T02:16:14.611Z,9.57
2023-05-10T02:18:45.068Z,9.49
2023-05-10T02:21:15.550Z,9.59
2023-05-10T02:23:45.738Z,9.81
2023-05-10T02:26:15.247Z,9.63
2023-05-10T02:28:45.936Z,9.53
2023-05-10T02:31:15.765Z,9.60
2023-05-10T02:33:47.018Z,9.77
2023-05-10T02:36:15.856Z,9.79
2023-05-10T02:38:45.734Z,9.75
2023-05-10T02:41:14.799Z,9.62
2023-05-10T02:43:44.370Z,9.67
2023-05-10T02:46:13.148Z,9.65
2023-05-10T02:48:42.474Z,9.68
2023-05-10T02:51:18.836Z,9.66
2023-05-10T02:53:49.353Z,9.64
2023-05-10T02:56:26.304Z,9.63
2023-05-10T02:58:55.153Z,9.48
2023-05-10T03:01:23.777Z,9.34
2023-05-10T03:03:52.277Z,9.36
2023-05-10T03:06:22.233Z,9.59
2023-05-10T03:08:51.027Z,9.58
2023-05-10T03:11:42.173Z,9.57
2023-05-10T03:14:22.047Z,9.49
2023-05-10T03:17:01.309Z,9.54
2023-05-10T03:19:39.147Z,9.54
2023-05-10T03:22:13.385Z,9.41
2023-05-10T03:24:43.728Z,9.50
2023-05-10T03:27:13.510Z,9.47
2023-05-10T03:29:42.638Z,9.35
2023-05-10T03:32:11.189Z,9.35
2023-05-10T03:34:44.521Z,9.45
2023-05-10T03:37:14.441Z,9.32
2023-05-10T03:39:43.204Z,9.13
2023-05-10T03:42:12.923Z,9.50
2023-05-10T03:44:41.802Z,9.34
2023-05-10T03:47:10.658Z,9.12
2023-05-10T03:49:39.207Z,9.29
2023-05-10T03:52:07.687Z,9.34
2023-05-10T03:54:37.586Z,9.26
2023-05-10T03:57:06.152Z,9.10
2023-05-10T03:59:34.632Z,9.21
2023-05-10T04:02:03.176Z,9.18
2023-05-10T04:04:31.750Z,9.19
2023-05-10T04:07:00.206Z,9.28
2023-05-10T04:09:28.737Z,9.55
2023-05-10T04:11:58.606Z,9.41
2023-05-10T04:14:27.068Z,9.51
2023-05-10T04:16:56.351Z,9.58
2023-05-10T04:19:25.286Z,9.47
2023-05-10T04:21:53.746Z,9.51
2023-05-10T04:24:22.464Z,9.37
2023-05-10T04:26:50.935Z,9.46
2023-05-10T04:29:20.754Z,9.43
2023-05-10T04:31:49.906Z,9.40
2023-05-10T04:34:18.517Z,9.43
2023-05-10T04:36:46.986Z,9.26
2023-05-10T04:39:15.867Z,9.28
2023-05-10T04:41:44.357Z,9.28
2023-05-10T04:44:12.853Z,9.35
2023-05-10T04:46:43.436Z,9.31
2023-05-10T04:49:11.959Z,9.45
2023-05-10T04:51:40.590Z,9.54
2023-05-10T04:54:09.364Z,9.68
2023-05-10T04:56:37.844Z,9.33
2023-05-10T04:59:06.323Z,9.19
2023-05-10T05:01:35.014Z,9.14
2023-05-10T05:04:05.281Z,9.16
2023-05-10T05:06:34.020Z,9.13
2023-05-10T05:09:02.484Z,9.12
2023-05-10T05:11:31.193Z,9.12
2023-05-10T05:14:00.650Z,9.29
2023-05-10T05:16:32.627Z,9.52
2023-05-10T05:19:02.179Z,9.47
2023-05-10T05:21:33.197Z,9.30
2023-05-10T05:24:02.007Z,9.28
2023-05-10T05:26:30.505Z,9.32
2023-05-10T05:28:58.957Z,9.60
2023-05-10T05:31:27.422Z,9.37
2023-05-10T05:33:56.302Z,9.56
2023-05-10T05:36:24.823Z,9.40
2023-05-10T05:38:54.638Z,9.41
2023-05-10T05:41:23.618Z,9.33
2023-05-10T05:43:52.096Z,9.40
2023-05-10T05:46:20.961Z,9.49
2023-05-10T05:48:49.526Z,9.30
2023-05-10T05:51:18.208Z,9.35
2023-05-10T05:53:46.692Z,9.49
2023-05-10T05:56:16.558Z,9.57
2023-05-10T05:58:45.496Z,9.62
2023-05-10T06:01:15.264Z,9.36
2023-05-10T06:03:44.052Z,9.60
2023-05-10T06:06:13.554Z,9.43
2023-05-10T06:08:42.030Z,9.43
2023-05-10T06:11:10.492Z,9.41
2023-05-10T06:13:40.394Z,9.60
2023-05-10T06:16:09.413Z,9.57
2023-05-10T06:18:38.152Z,9.73
2023-05-10T06:21:06.904Z,9.70
2023-05-10T06:23:35.894Z,9.96
2023-05-10T06:26:04.370Z,9.97
2023-05-10T06:28:34.578Z,9.97
2023-05-10T06:31:06.024Z,10.12
2023-05-10T06:33:34.538Z,10.24
2023-05-10T06:36:03.054Z,10.22
2023-05-10T06:38:31.628Z,10.01
2023-05-10T06:41:00.069Z,10.14
2023-05-10T06:43:29.741Z,10.22
2023-05-10T06:45:58.391Z,10.22
2023-05-10T06:48:28.611Z,10.15
2023-05-10T06:50:57.066Z,9.88
2023-05-10T06:53:25.548Z,9.95
2023-05-10T06:55:54.023Z,9.90
2023-05-10T06:58:22.467Z,9.79
2023-05-10T07:00:51.820Z,9.65
2023-05-10T07:03:20.374Z,9.78
2023-05-10T07:05:51.072Z,9.29
2023-05-10T07:08:19.766Z,9.18
2023-05-10T07:10:48.202Z,9.26
2023-05-10T07:13:16.800Z,9.19
2023-05-10T07:15:45.680Z,9.24
2023-05-10T07:18:14.136Z,9.21
2023-05-10T07:20:42.614Z,9.47
2023-05-10T07:23:12.663Z,9.29
2023-05-10T07:25:41.094Z,9.22
2023-05-10T07:28:09.556Z,9.28
2023-05-10T07:30:38.217Z,9.34
2023-05-10T07:33:06.755Z,9.16
2023-05-10T07:35:35.217Z,9.45
2023-05-10T07:38:03.974Z,9.61
2023-05-10T07:40:34.225Z,9.45
2023-05-10T07:43:03.405Z,9.75
2023-05-10T07:45:31.942Z,9.61
2023-05-10T07:48:00.567Z,9.87
2023-05-10T07:50:29.087Z,10.10
2023-05-10T07:52:57.642Z,10.27
2023-05-10T07:55:26.189Z,10.18
2023-05-10T07:57:56.069Z,10.42
2023-05-10T08:00:24.557Z,10.02
2023-05-10T08:02:53.060Z,10.32
2023-05-10T08:05:21.529Z,10.28
2023-05-10T08:07:50.075Z,10.31
2023-05-10T08:10:18.643Z,10.37
2023-05-10T08:12:47.585Z,10.29
2023-05-10T08:15:17.630Z,10.60
2023-05-10T08:17:46.799Z,11.30
2023-05-10T08:20:33.609Z,11.07
2023-05-10T08:23:20.632Z,11.13
2023-05-10T08:29:16.613Z,11.15
2023-05-10T08:31:47.281Z,11.69
2023-05-10T08:34:16.072Z,11.45
2023-05-10T08:36:45.168Z,11.54
2023-05-10T08:39:26.830Z,11.49
2023-05-10T08:42:04.227Z,11.67
2023-05-10T08:44:34.904Z,12.01
2023-05-10T08:47:08.710Z,11.21
2023-05-10T08:49:37.546Z,11.37
2023-05-10T08:52:08.427Z,11.29
2023-05-10T08:54:37.274Z,10.92
2023-05-10T08:57:05.857Z,10.57
2023-05-10T08:59:34.455Z,10.63
2023-05-10T09:02:06.513Z,10.69
2023-05-10T09:04:35.280Z,10.55
2023-05-10T09:07:03.997Z,10.33
2023-05-10T09:09:33.418Z,10.43
2023-05-10T09:12:02.144Z,10.33
2023-05-10T09:14:31.276Z,10.53
2023-05-10T09:16:59.902Z,10.90
2023-05-10T09:19:30.621Z,11.55
2023-05-10T09:22:01.238Z,11.90
2023-05-10T09:24:32.378Z,11.94
2023-05-10T09:27:01.063Z,12.27
2023-05-10T09:29:41.699Z,12.34
2023-05-10T09:32:10.198Z,12.83
2023-05-10T09:34:42.186Z,13.09
2023-05-10T09:37:10.733Z,12.91
2023-05-10T09:39:40.029Z,13.02
2023-05-10T09:42:10.013Z,13.11
2023-05-10T09:44:39.146Z,12.87
2023-05-10T09:47:07.670Z,13.38
2023-05-10T09:49:36.637Z,13.27
2023-05-10T09:52:08.501Z,13.00
2023-05-10T09:54:37.418Z,12.96
2023-05-10T09:57:06.076Z,12.72
2023-05-10T09:59:37.287Z,12.38
2023-05-10T10:02:06.180Z,12.06
2023-05-10T10:04:34.937Z,12.17
2023-05-10T10:07:05.606Z,12.07
2023-05-10T10:09:36.604Z,11.45
2023-05-10T10:12:06.655Z,11.28
2023-05-10T10:14:36.485Z,10.82
2023-05-10T10:17:08.778Z,10.35
2023-05-10T10:19:38.484Z,10.20
2023-05-10T10:22:07.615Z,9.83
2023-05-10T10:24:37.501Z,9.79
2023-05-10T10:27:22.147Z,10.20
2023-05-10T10:30:02.897Z,10.54
2023-05-10T10:32:44.888Z,10.39
2023-05-10T10:35:13.703Z,10.90
2023-05-10T10:37:47.297Z,10.83
2023-05-10T10:40:34.596Z,11.03
2023-05-10T10:43:26.482Z,10.87
2023-05-10T10:46:15.833Z,11.89
2023-05-10T10:48:50.421Z,11.81
2023-05-10T10:51:19.158Z,12.33
2023-05-10T10:53:50.605Z,12.11
2023-05-10T10:56:25.496Z,11.96
2023-05-10T10:58:57.093Z,12.13
2023-05-10T11:01:25.767Z,11.87
2023-05-10T11:04:20.304Z,11.82
2023-05-10T11:06:48.932Z,11.82
2023-05-10T11:09:17.390Z,11.38
2023-05-10T11:11:56.174Z,11.22
2023-05-10T11:14:26.736Z,11.96
2023-05-10T11:16:55.571Z,12.46
2023-05-10T11:19:24.100Z,12.30
2023-05-10T11:22:14.794Z,12.51
2023-05-10T11:25:00.229Z,12.42
2023-05-10T11:27:29.040Z,12.57
2023-05-10T11:29:58.925Z,11.96
2023-05-10T11:32:27.579Z,12.53
2023-05-10T11:34:56.159Z,12.39
2023-05-10T11:37:24.603Z,12.21
2023-05-10T11:39:53.051Z,11.93
2023-05-10T11:42:21.568Z,11.84
2023-05-10T11:44:50.293Z,11.98
2023-05-10T11:47:20.170Z,12.31
2023-05-10T11:49:51.718Z,11.91
2023-05-10T11:52:21.791Z,12.46
2023-05-10T11:54:54.744Z,12.32
2023-05-10T11:57:28.669Z,13.07
2023-05-10T11:59:58.904Z,12.86
2023-05-10T12:02:28.866Z,13.33
2023-05-10T12:04:58.287Z,13.39
2023-05-10T12:07:28.801Z,13.17
2023-05-10T12:10:10.009Z,12.96
2023-05-10T12:12:43.938Z,12.62
2023-05-10T12:15:20.585Z,13.02
2023-05-10T12:17:51.645Z,12.64
2023-05-10T12:20:23.001Z,12.51
2023-05-10T12:22:53.911Z,12.56
2023-05-10T12:25:24.794Z,12.83
2023-05-10T12:27:58.314Z,12.40
2023-05-10T12:30:28.522Z,12.48
2023-05-10T12:33:04.494Z,12.83
2023-05-10T12:35:33.870Z,12.59
2023-05-10T12:38:02.384Z,12.84
2023-05-10T12:40:31.233Z,12.06
2023-05-10T12:42:59.793Z,11.62
2023-05-10T12:45:28.243Z,11.87
2023-05-10T12:47:58.095Z,11.85
2023-05-10T12:50:26.668Z,11.88
2023-05-10T12:52:55.359Z,11.72
2023-05-10T12:55:23.877Z,11.77
2023-05-10T12:57:52.364Z,11.90
2023-05-10T13:00:21.595Z,11.86
2023-05-10T13:02:50.359Z,12.00
2023-05-10T13:05:20.302Z,12.72
2023-05-10T13:07:48.765Z,13.08
2023-05-10T13:10:18.490Z,13.22
2023-05-10T13:12:47.144Z,13.30
2023-05-10T13:15:15.591Z,13.12
2023-05-10T13:17:44.659Z,13.17
2023-05-10T13:20:13.966Z,13.37
2023-05-10T13:22:45.417Z,12.85
2023-05-10T13:25:14.383Z,12.66
2023-05-10T13:27:43.225Z,12.36
2023-05-10T13:30:12.885Z,11.85
2023-05-10T13:32:41.451Z,11.62
2023-05-10T13:35:11.183Z,11.67
2023-05-10T13:37:39.694Z,11.60
2023-05-10T13:40:10.970Z,10.79
2023-05-10T13:42:39.854Z,10.83
2023-05-10T13:45:09.872Z,11.02
2023-05-10T13:47:38.508Z,10.64
2023-05-10T13:50:08.856Z,11.80
2023-05-10T13:52:37.344Z,11.66
2023-05-10T13:55:06.905Z,12.02
2023-05-10T13:57:38.019Z,11.88
2023-05-10T14:00:08.722Z,11.58
2023-05-10T14:02:37.330Z,11.82
2023-05-10T14:05:07.769Z,11.75
2023-05-10T14:07:36.543Z,11.89
2023-05-10T14:10:05.701Z,12.35
2023-05-10T14:12:34.213Z,11.85
2023-05-10T14:15:06.788Z,12.14
2023-05-10T14:17:35.364Z,12.22
2023-05-10T14:20:04.797Z,12.20
2023-05-10T14:22:33.575Z,12.65
2023-05-10T14:25:03.333Z,12.06
2023-05-10T14:27:31.832Z,12.53
2023-05-10T14:30:00.575Z,12.23
2023-05-10T14:32:30.482Z,12.37
2023-05-10T14:34:58.983Z,12.46
2023-05-10T14:37:27.844Z,12.43
2023-05-10T14:39:56.395Z,12.40
2023-05-10T14:42:24.874Z,12.85
2023-05-10T14:44:53.339Z,12.46
2023-05-10T14:47:22.061Z,12.72
2023-05-10T14:49:51.910Z,13.13
2023-05-10T14:52:20.602Z,12.44
2023-05-10T14:54:49.054Z,12.28
2023-05-10T14:57:17.527Z,12.31
2023-05-10T14:59:45.999Z,12.07
2023-05-10T15:02:14.891Z,11.85
2023-05-10T15:04:43.995Z,11.94
2023-05-10T15:07:15.820Z,11.91
2023-05-10T15:09:44.512Z,11.93
2023-05-10T15:12:13.024Z,11.42
2023-05-10T15:14:41.456Z,12.07
2023-05-10T15:17:10.012Z,12.29
2023-05-10T15:19:38.582Z,12.32
2023-05-10T15:22:07.568Z,12.56
2023-05-10T15:24:37.399Z,12.23
2023-05-10T15:27:06.207Z,12.40
2023-05-10T15:29:35.289Z,12.77
2023-05-10T15:32:04.516Z,12.88
2023-05-10T15:34:34.850Z,12.94
2023-05-10T15:37:04.287Z,12.65
2023-05-10T15:39:32.790Z,12.28
2023-05-10T15:42:02.679Z,12.15
2023-05-10T15:44:31.381Z,12.22
2023-05-10T15:46:59.974Z,11.69
2023-05-10T15:49:28.570Z,11.97
2023-05-10T15:51:57.045Z,11.96
2023-05-10T15:54:25.742Z,11.68
2023-05-10T15:56:55.017Z,11.50
2023-05-10T15:59:24.903Z,11.73
2023-05-10T16:01:53.835Z,11.66
2023-05-10T16:04:22.317Z,11.60
2023-05-10T16:06:51.054Z,11.92
2023-05-10T16:09:19.504Z,11.66
2023-05-10T16:11:48.368Z,11.89
2023-05-10T16:14:17.375Z,11.91
2023-05-10T16:16:47.673Z,11.84
2023-05-10T16:19:16.914Z,11.46
2023-05-10T16:21:45.413Z,11.75
2023-05-10T16:24:14.237Z,11.29
2023-05-10T16:26:42.750Z,11.58
2023-05-10T16:29:11.920Z,11.33
2023-05-10T16:31:40.656Z,11.57
2023-05-10T16:34:10.486Z,11.52
2023-05-10T16:36:39.028Z,11.81
2023-05-10T16:39:09.313Z,11.75
2023-05-10T16:41:37.786Z,11.62
2023-05-10T16:44:06.264Z,11.62
2023-05-10T16:46:35.048Z,11.09
2023-05-10T16:49:03.868Z,11.36
2023-05-10T16:51:33.724Z,11.12
2023-05-10T16:54:02.171Z,11.21
2023-05-10T16:56:30.912Z,11.25
2023-05-10T16:58:59.408Z,11.29
2023-05-10T17:01:27.975Z,11.32
2023-05-10T17:03:56.958Z,11.44
2023-05-10T17:06:25.824Z,11.64
2023-05-10T17:08:55.736Z,11.16
2023-05-10T17:11:24.226Z,11.37
2023-05-10T17:13:53.080Z,11.42
2023-05-10T17:16:22.387Z,11.07
2023-05-10T17:18:50.959Z,11.07
2023-05-10T17:21:19.685Z,11.00
2023-05-10T17:23:48.168Z,10.89
2023-05-10T17:26:18.018Z,10.65
2023-05-10T17:28:46.538Z,10.39
2023-05-10T17:31:15.326Z,10.44
2023-05-10T17:33:43.898Z,10.25
2023-05-10T17:36:12.442Z,10.01
2023-05-10T17:38:41.221Z,10.15
2023-05-10T17:41:09.678Z,10.00
2023-05-10T17:43:39.730Z,9.91
2023-05-10T17:46:08.245Z,9.88
2023-05-10T17:48:37.060Z,9.75
2023-05-10T17:51:06.521Z,9.55
2023-05-10T17:53:35.769Z,9.50
2023-05-10T17:56:04.288Z,9.80
2023-05-10T17:58:33.493Z,9.47
2023-05-10T18:01:04.058Z,9.64
2023-05-10T18:03:33.032Z,9.78
2023-05-10T18:06:02.216Z,9.74
2023-05-10T18:08:30.810Z,9.59
2023-05-10T18:10:59.388Z,9.51
2023-05-10T18:13:27.924Z,9.58
2023-05-10T18:15:56.469Z,9.66
2023-05-10T18:18:26.957Z,9.62
2023-05-10T18:20:57.737Z,9.40
2023-05-10T18:23:26.690Z,9.49
2023-05-10T18:25:55.248Z,9.35
2023-05-10T18:28:24.594Z,9.26
2023-05-10T18:30:53.197Z,9.14
2023-05-10T18:33:21.900Z,8.96
2023-05-10T18:35:51.782Z,8.80
2023-05-10T18:38:20.617Z,8.79
2023-05-10T18:40:49.356Z,8.71
2023-05-10T18:43:17.803Z,8.92
2023-05-10T18:45:46.551Z,9.07
2023-05-10T18:48:15.004Z,9.16
2023-05-10T18:50:43.475Z,8.95
2023-05-10T18:53:13.319Z,8.96
2023-05-10T18:55:41.769Z,9.09
2023-05-10T18:58:10.279Z,8.96
2023-05-10T19:00:38.963Z,8.99
2023-05-10T19:03:07.703Z,8.87
2023-05-10T19:05:36.531Z,8.61
2023-05-10T19:08:05.311Z,8.87
2023-05-10T19:10:35.167Z,8.81
2023-05-10T19:13:03.625Z,8.43
2023-05-10T19:15:32.090Z,8.52
2023-05-10T19:18:00.640Z,8.88
2023-05-10T19:20:30.274Z,8.43
2023-05-10T19:23:09.609Z,8.55
2023-05-10T19:25:42.538Z,8.90
2023-05-10T19:28:11.700Z,8.68
2023-05-10T19:30:40.446Z,8.65
2023-05-10T19:33:10.224Z,8.82
2023-05-10T19:35:38.723Z,8.90
2023-05-10T19:38:07.260Z,8.85
2023-05-10T19:40:36.274Z,8.83
2023-05-10T19:43:06.368Z,8.83
2023-05-10T19:45:37.132Z,8.80
2023-05-10T19:48:06.228Z,8.89
2023-05-10T19:50:34.793Z,8.89
2023-05-10T19:53:03.502Z,8.68
2023-05-10T19:55:33.880Z,8.49
2023-05-10T19:58:02.424Z,8.57
2023-05-10T20:00:33.028Z,8.53
2023-05-10T20:03:01.727Z,8.78
2023-05-10T20:05:30.556Z,8.65
2023-05-10T20:07:59.033Z,8.74
2023-05-10T20:10:27.755Z,8.45
2023-05-10T20:12:56.314Z,8.25
2023-05-10T20:15:25.156Z,8.23
2023-05-10T20:17:55.193Z,8.32
2023-05-10T20:20:24.079Z,8.10
2023-05-10T20:22:52.758Z,8.22
2023-05-10T20:25:21.201Z,8.25
2023-05-10T20:27:51.108Z,8.43
2023-05-10T20:30:19.987Z,8.42
2023-05-10T20:32:48.980Z,8.28
2023-05-10T20:35:19.104Z,8.38
2023-05-10T20:37:48.478Z,8.57
2023-05-10T20:40:17.183Z,8.57
2023-05-10T20:42:45.942Z,8.76
2023-05-10T20:45:14.642Z,8.60
2023-05-10T20:47:43.175Z,8.56
2023-05-10T20:50:12.566Z,8.59
2023-05-10T20:52:42.409Z,8.52
2023-05-10T20:55:11.423Z,8.48
2023-05-10T20:57:40.112Z,8.69
2023-05-10T21:00:10.593Z,8.61
2023-05-10T21:02:39.078Z,8.71
2023-05-10T21:05:09.041Z,8.62
2023-05-10T21:07:38.082Z,8.68
2023-05-10T21:10:10.014Z,8.57
2023-05-10T21:12:38.957Z,8.64
2023-05-10T21:15:09.180Z,8.56
2023-05-10T21:17:37.911Z,8.49
2023-05-10T21:20:08.066Z,8.49
2023-05-10T21:22:36.531Z,8.44
2023-05-10T21:25:05.417Z,8.47
2023-05-10T21:27:35.668Z,8.18
2023-05-10T21:30:04.189Z,8.33
2023-05-10T21:32:32.964Z,8.43
2023-05-10T21:35:01.776Z,8.44
2023-05-10T21:37:30.264Z,8.43
2023-05-10T21:39:58.838Z,8.40
2023-05-10T21:42:27.373Z,8.49
2023-05-10T21:44:57.267Z,8.34
2023-05-10T21:47:26.076Z,8.29
2023-05-10T21:49:54.531Z,8.30
2023-05-10T21:52:23.194Z,8.38
2023-05-10T21:54:51.679Z,8.36
2023-05-10T21:57:21.531Z,8.27
2023-05-10T21:59:50.290Z,8.27
2023-05-10T22:02:20.196Z,8.24
2023-05-10T22:04:48.951Z,8.27
2023-05-10T22:07:17.805Z,8.28
2023-05-10T22:09:46.250Z,8.21
2023-05-10T22:12:14.768Z,8.23
2023-05-10T22:14:43.210Z,8.19
2023-05-10T22:17:11.899Z,8.23
2023-05-10T22:19:42.009Z,8.01
2023-05-10T22:22:10.575Z,7.84
2023-05-10T22:24:39.054Z,7.88
2023-05-10T22:27:08.791Z,7.75
2023-05-10T22:29:37.274Z,7.82
2023-05-10T22:32:06.655Z,7.43
2023-05-10T22:34:35.592Z,7.73
2023-05-10T22:37:05.719Z,7.77
2023-05-10T22:39:35.088Z,7.58
2023-05-10T22:42:03.768Z,7.52
2023-05-10T22:44:32.256Z,7.72
2023-05-10T22:47:00.742Z,7.84
2023-05-10T22:49:29.448Z,7.77
2023-05-10T22:51:57.920Z,7.76
2023-05-10T22:54:27.877Z,7.85
2023-05-10T22:56:57.379Z,7.94
2023-05-10T22:59:25.941Z,7.78
2023-05-10T23:01:55.264Z,7.59
2023-05-10T23:04:24.037Z,7.70
2023-05-10T23:06:53.645Z,7.91
2023-05-10T23:09:22.362Z,7.93
2023-05-10T23:11:52.201Z,7.82
2023-05-10T23:14:20.682Z,7.58
2023-05-10T23:16:49.184Z,7.72
2023-05-10T23:19:17.682Z,7.84
2023-05-10T23:21:46.169Z,7.74
2023-05-10T23:24:14.758Z,7.92
2023-05-10T23:26:45.430Z,7.94
2023-05-10T23:29:15.298Z,7.91
2023-05-10T23:31:45.930Z,7.70
2023-05-10T23:34:14.401Z,7.95
2023-05-10T23:36:42.852Z,8.08
2023-05-10T23:39:11.923Z,7.92
2023-05-10T23:41:40.603Z,7.96
2023-05-10T23:44:09.072Z,8.01
2023-05-10T23:46:38.968Z,7.87
2023-05-10T23:49:07.436Z,7.62
2023-05-10T23:51:36.124Z,7.88
2023-05-10T23:54:04.947Z,7.55
2023-05-10T23:56:33.398Z,7.89
2023-05-10T23:59:01.920Z,7.90
